Retour classement

Votre classement

27°C
Orageux

30 juin 2001

10000

201 à 300
Scr Nom Prénom Club Temps Moy/Km Km/H Cat Cl/Cat
201 SCHNELL Jacky Eckbolsheim 00:44:11 04'25''10 13,58 V1M 65
202 PFLUMIO Benoit Dettwiller 00:44:11 04'25''10 13,58 V1M 66
203 SCHNEIDER Germain Pfaffenhoffen 00:44:15 04'25''50 13,56 SEM 108
204 BURGUN Denis Lingolsheim 00:44:16 04'25''60 13,55 V1M 67
205 HUBERT Laurent Cap Dingsheim 00:44:20 04'26''00 13,53 SEM 109
206 MULLER Jeannot Sncf Strasbourg 00:44:21 04'26''10 13,53 V2M 13
207 BERLING Michael Drusenheim 00:44:21 04'26''10 13,53 SEM 110
208 STEIN Louis Afcf Alsace 00:44:22 04'26''20 13,52 V2M 14
209 SCHMITT Lionel JSP Eckwersheim 00:44:25 04'26''50 13,51 CAM 1
210 WEICHEL Claude As Kaysersberg 00:44:27 04'26''70 13,5 V3M 4
211 MAFFRE Alain Caddie Sports 00:44:34 04'27''40 13,46 V2M 15
212 MATZINGER Pierre Asc Hager 00:44:35 04'27''50 13,46 SEM 111
213 SCHNEIDER Erwin Saverne 00:44:35 04'27''50 13,46 V2M 16
214 ACCONCIA Claudio Asc Hager 00:44:37 04'27''70 13,45 SEM 112
215 WOLFF Pierre Breuschwickersheim 00:44:38 04'27''80 13,44 V1M 68
216 STROH Armand Csc Kronenbourg 00:44:42 04'28''20 13,42 V2M 17
217 WIDIEZ Jean-marie Ind 00:44:44 04'28''40 13,41 SEM 113
218 BOTZUNG Guillaume Strasbourg 00:44:48 04'28''80 13,39 SEM 114
219 GESELL Marc Pfaffenhoffen 00:44:50 04'29''00 13,38 SEM 115
220 ROTHAN Jean Georges Wintershouse 00:44:50 04'29''00 13,38 SEM 116
221 GROSS Jacques Coop Alsace 00:44:53 04'29''30 13,37 V2M 18
222 WEISHAAR Pierre Schoenenbourg 00:44:54 04'29''40 13,36 V1M 69
223 HIEGEL Yannick Csnss Schirrhein 00:44:55 04'29''50 13,36 SEM 117
224 BOVIN Alexandre Port Autonome 00:44:56 04'29''60 13,35 SEM 118
225 GERTZ Remy Schleithal 00:44:57 04'29''70 13,35 V1M 70
226 BRUCKER Herve Strasbourg 00:44:59 04'29''90 13,34 SEM 119
227 FREYBURGER Guy Sport Azur Strasbourg 00:44:59 04'29''90 13,34 SEM 120
228 FRISON Gilbert Geispolsheim Gare 00:45:03 04'30''30 13,32 V1M 71
229 DEMANGE Jean Michel Mars 00:45:05 04'30''50 13,31 V1M 72
230 BEHE Patrick Coop Alsace 00:45:10 04'31''00 13,28 SEM 121
231 BRUCKMANN Gerard Aere Erstein 00:45:10 04'31''00 13,28 V1M 73
232 SCHLAEDER Claude Triathlon Wantzenau 00:45:12 04'31''20 13,27 SEM 122
233 METZGER Gerard Sogenal 00:45:13 04'31''30 13,27 V2M 19
234 HUGEL Didier Asptt Strasbourg 00:45:14 04'31''40 13,26 V2M 20
235 BRENNER Vincent JSP Eckwersheim 00:45:14 04'31''40 13,26 CAM 2
236 WALTER Laurent Burstner 00:45:14 04'31''40 13,26 SEM 123
237 SCHEIDT Damien Schoenenbourg 00:45:15 04'31''50 13,26 SEM 124
238 DRIGO Fabrice Obernai 00:45:16 04'31''60 13,25 SEM 125
239 KLEIN Georges Sati 00:45:18 04'31''80 13,25 V2M 21
240 LUDWIG Steve Rest Belle Vue Gries 00:45:22 04'32''20 13,23 SEM 126
241 DEIBER Patrick Cial Running Club 00:45:23 04'32''30 13,22 SEM 127
242 EBERHARDT Claude Trimbach 00:45:24 04'32''40 13,22 SEM 128
243 BOVE Jean Claude Strasbourg 00:45:26 04'32''60 13,21 V1M 74
244 HAGER Thierry La Wantzenau 00:45:30 04'33''00 13,19 V1M 75
245 CHRZASZCZ René Diebling 00:45:33 04'33''30 13,17 V3M 5
246 WENGER Gilles Hoenheim 00:45:33 04'33''30 13,17 SEM 129
247 KIEFER Claudine Alsace Nord Athle 00:45:41 04'34''10 13,13 V0F 4
248 ADAM Jacques Wasselonne 00:45:41 04'34''10 13,13 V2M 22
249 HECKEL Daniel As Gunther 00:45:41 04'34''10 13,13 V1M 76
250 ACKERMANN Jean Luc Strasbourg 00:45:44 04'34''40 13,12 V1M 77
251 GENTNER Aime Auenheim 00:45:49 04'34''90 13,1 V1M 78
252 GROSS Yves Ville De Haguenau 00:45:51 04'35''10 13,09 SEM 130
253 KARTNER Bernard Messier Bugatti 00:45:53 04'35''30 13,08 V1M 79
254 WIDMANN Armand Asc Hager 00:45:54 04'35''40 13,07 V2M 23
255 KUNTZ Nicolas Ping-pong betschdorf 00:45:56 04'35''60 13,06 SEM 131
256 JUNG Remy Asptt Strasbourg 00:45:58 04'35''80 13,05 V1M 80
257 JUIF Sylvain Aere Erstein 00:46:00 04'36''00 13,04 SEM 132
258 STEINMETZ Jean Paul Mittelhausen 00:46:02 04'36''20 13,03 V2M 24
259 ZUNIDO Didier Hegeney 00:46:04 04'36''40 13,02 V1M 81
260 BILLEREY Roland Caddie Sports 00:46:05 04'36''50 13,02 V2M 25
261 REISS Stephane Gundershoffen 00:46:08 04'36''80 13,01 SEM 133
262 NEICHEL Marcel La Saline 00:46:10 04'37''00 13 SEM 134
263 HOEFFLER Didier Pfaffenhoffen 00:46:11 04'37''10 12,99 SEM 135
264 HUMBER Patrick Fc Soleil Bischheim 00:46:13 04'37''30 12,98 SEM 136
265 RITZENTHALER Jean Csl Neuf Brisach 00:46:14 04'37''40 12,98 V3M 6
266 JAMBOIS Martin Herimenil 00:46:15 04'37''50 12,97 V1M 82
267 DUMORTIER Michel Alsace Nord Athle 00:46:19 04'37''90 12,95 V1M 83
268 HERRMANN Fabien Burstner 00:46:19 04'37''90 12,95 SEM 137
269 KLEIS David Aere Erstein 00:46:20 04'38''00 12,95 SEM 138
270 LE CAM Gilbert Haguenau 00:46:22 04'38''20 12,94 V1M 84
271 FLORENCE Evelyne Lilly France 00:46:23 04'38''30 12,94 V1F 1
272 FLORENCE Bernard Lilly France 00:46:24 04'38''40 12,93 V1M 85
273 LAUSECKER François Caddie Sports 00:46:24 04'38''40 12,93 V2M 26
274 PERNEL Philippe Aco Blenod 00:46:26 04'38''60 12,92 V1M 86
275 GUERARD Olivier Clic on line 00:46:26 04'38''60 12,92 SEM 139
276 MOOG Philippe Burstner 00:46:27 04'38''70 12,92 CAM 3
277 GOETZ Raymond Asl Printzheim 00:46:29 04'38''90 12,91 V2M 27
278 HARKAT Arnaud As Gunther 00:46:29 04'38''90 12,91 CAM 4
279 ARNHOLT Jean Michel Burstner 00:46:30 04'39''00 12,9 SEM 140
280 WERMUTH Jean Pierre Aere Erstein 00:46:31 04'39''10 12,9 V3M 7
281 WAMBACH Francois Ina Roulements 00:46:32 04'39''20 12,89 V1M 87
282 TESSON Francois Xavier Strasbourg 00:46:32 04'39''20 12,89 V1M 88
283 GRANDIN Sabine RT Schweighouse 00:46:33 04'39''30 12,89 V1F 2
284 JUNG Xavier Cial Running Club 00:46:34 04'39''40 12,88 V1M 89
285 WINZENRIETH Raoul Afcf Alsace 00:46:36 04'39''60 12,88 V1M 90
286 HAMM Damien Rest Belle Vue Gries 00:46:38 04'39''80 12,87 SEM 141
287 FUCHS Aime Aere Erstein 00:46:39 04'39''90 12,86 V2M 28
288 GRONZINGER Dominique Courir a Niederbronn 00:46:39 04'39''90 12,86 V0F 5
289 ZIRNHELD Eric Langensoultzbach 00:46:40 04'40''00 12,86 V1M 91
290 WOLFF Patrick Asc Hager 00:46:41 04'40''10 12,85 V1M 92
291 BAUMGART Patrick Bruker 00:46:41 04'40''10 12,85 V2M 29
292 HUTTARD Jean Luc Cld Ottrott 00:46:41 04'40''10 12,85 SEM 142
293 ANTONI Catherine Allenwiller 00:46:42 04'40''20 12,85 V0F 6
294 HAFFNER Georges Coop Alsace 00:46:45 04'40''50 12,83 V1M 93
295 JOERGER André Wissembourg 00:46:51 04'41''10 12,81 V2M 30
296 FISCHER Alois Tus Hoerdt 00:46:53 04'41''30 12,8 V1M 94
297 OUAHAB Abdel Strasbourg 00:46:54 04'41''40 12,79 SEM 143
298 ISENMANN Elzira Courir a Ederbronn 00:46:54 04'41''40 12,79 V0F 7
299 AMET Didier Courir a Niederbronn 00:46:55 04'41''50 12,79 V1M 95
300 WOLF Bernd Tus Hoerdt 00:46:56 04'41''60 12,78 V1M 96
  

Le traitement informatique des résultats a été réalisé par M. USSELMANN Marcel et son équipe.

Pour nous contacter: Tél. 0388632385 ou nous écrire

nous écrire ?

Retour classement